createdAt,value
2022-09-07T00:00:19.884Z,1.70
2022-09-07T00:03:22.458Z,2.17
2022-09-07T00:06:24.430Z,2.05
2022-09-07T00:09:26.001Z,1.80
2022-09-07T00:12:27.590Z,2.10
2022-09-07T00:15:29.217Z,1.95
2022-09-07T00:18:31.446Z,2.08
2022-09-07T00:21:33.517Z,2.13
2022-09-07T00:24:35.179Z,2.05
2022-09-07T00:27:36.767Z,2.00
2022-09-07T00:30:42.868Z,1.80
2022-09-07T00:33:45.308Z,2.00
2022-09-07T00:36:46.926Z,1.88
2022-09-07T00:39:49.759Z,1.92
2022-09-07T00:42:51.363Z,2.10
2022-09-07T00:45:52.974Z,2.15
2022-09-07T00:49:18.390Z,2.17
2022-09-07T00:52:21.743Z,2.90
2022-09-07T00:55:23.793Z,1.80
2022-09-07T00:58:26.198Z,1.90
2022-09-07T01:01:28.562Z,1.90
2022-09-07T01:04:31.632Z,2.17
2022-09-07T01:07:33.531Z,1.83
2022-09-07T01:10:36.039Z,1.95
2022-09-07T01:13:40.988Z,1.85
2022-09-07T01:17:01.197Z,2.35
2022-09-07T01:20:28.014Z,2.47
2022-09-07T01:24:09.197Z,2.22
2022-09-07T01:27:48.066Z,1.83
2022-09-07T01:30:59.132Z,1.80
2022-09-07T01:34:23.823Z,1.77
2022-09-07T01:37:46.608Z,1.80
2022-09-07T01:41:01.730Z,3.55
2022-09-07T01:44:24.418Z,2.92
2022-09-07T01:47:33.345Z,2.40
2022-09-07T01:50:46.793Z,2.60
2022-09-07T01:53:58.147Z,2.15
2022-09-07T01:57:08.953Z,2.30
2022-09-07T02:00:16.854Z,1.98
2022-09-07T02:03:23.181Z,2.60
2022-09-07T02:06:37.926Z,2.28
2022-09-07T02:09:51.443Z,2.33
2022-09-07T02:12:55.857Z,2.10
2022-09-07T02:16:09.111Z,2.40
2022-09-07T02:19:16.837Z,2.33
2022-09-07T02:22:24.366Z,2.45
2022-09-07T02:25:34.589Z,2.28
2022-09-07T02:28:38.567Z,2.40
2022-09-07T02:31:40.706Z,2.40
2022-09-07T02:34:42.392Z,2.77
2022-09-07T02:37:45.555Z,2.60
2022-09-07T02:40:52.299Z,2.50
2022-09-07T02:43:53.909Z,2.50
2022-09-07T02:47:42.057Z,2.35
2022-09-07T02:51:16.166Z,2.40
2022-09-07T02:54:38.283Z,2.30
2022-09-07T02:57:39.947Z,2.60
2022-09-07T03:01:09.583Z,2.53
2022-09-07T03:04:30.063Z,2.60
2022-09-07T03:08:18.189Z,3.08
2022-09-07T03:11:20.107Z,3.10
2022-09-07T03:14:24.180Z,2.65
2022-09-07T03:17:25.777Z,3.03
2022-09-07T03:20:27.357Z,2.83
2022-09-07T03:23:28.984Z,2.95
2022-09-07T03:26:30.678Z,2.50
2022-09-07T03:29:32.329Z,2.80
2022-09-07T03:32:35.678Z,2.97
2022-09-07T03:35:37.771Z,2.92
2022-09-07T03:38:39.380Z,2.95
2022-09-07T03:41:41.110Z,2.80
2022-09-07T03:44:42.785Z,2.85
2022-09-07T03:47:44.831Z,2.50
2022-09-07T03:50:55.548Z,2.80
2022-09-07T03:53:57.558Z,2.90
2022-09-07T03:56:59.134Z,2.70
2022-09-07T04:00:00.755Z,2.20
2022-09-07T04:03:02.375Z,2.50
2022-09-07T04:06:05.026Z,2.67
2022-09-07T04:09:08.567Z,3.60
2022-09-07T04:12:10.191Z,3.22
2022-09-07T04:15:11.779Z,3.45
2022-09-07T04:18:13.378Z,3.53
2022-09-07T04:21:15.266Z,3.88
2022-09-07T04:24:17.682Z,3.78
2022-09-07T04:27:19.340Z,3.92
2022-09-07T04:30:20.966Z,4.15
2022-09-07T04:33:22.957Z,3.97
2022-09-07T04:36:27.312Z,3.53
2022-09-07T04:39:28.962Z,3.55
2022-09-07T04:42:31.025Z,3.70
2022-09-07T04:45:32.619Z,4.28
2022-09-07T04:48:34.527Z,3.70
2022-09-07T04:51:37.754Z,4.32
2022-09-07T04:54:39.372Z,4.50
2022-09-07T04:57:40.999Z,4.97
2022-09-07T05:00:42.745Z,4.32
2022-09-07T05:03:45.289Z,3.92
2022-09-07T05:06:46.882Z,4.80
2022-09-07T05:09:48.561Z,4.03
2022-09-07T05:12:50.159Z,4.10
2022-09-07T05:15:51.795Z,4.03
2022-09-07T05:18:56.527Z,4.10
2022-09-07T05:21:58.567Z,4.38
2022-09-07T05:25:00.355Z,4.57
2022-09-07T05:28:02.184Z,4.78
2022-09-07T05:31:21.012Z,4.78
2022-09-07T05:34:30.926Z,3.70
2022-09-07T05:37:33.255Z,4.43
2022-09-07T05:40:38.550Z,4.35
2022-09-07T05:47:04.215Z,4.22
2022-09-07T05:50:07.434Z,4.22
2022-09-07T05:53:09.237Z,4.82
2022-09-07T05:56:11.700Z,4.45
2022-09-07T05:59:13.290Z,5.45
2022-09-07T06:02:15.918Z,5.10
2022-09-07T06:05:17.744Z,5.07
2022-09-07T06:08:19.348Z,5.80
2022-09-07T06:11:23.196Z,5.78
2022-09-07T06:14:25.095Z,6.07
2022-09-07T06:17:27.094Z,7.10
2022-09-07T06:20:28.760Z,6.75
2022-09-07T06:23:33.267Z,7.43
2022-09-07T06:26:34.823Z,7.25
2022-09-07T06:29:36.502Z,6.25
2022-09-07T06:32:45.921Z,6.90
2022-09-07T06:36:01.822Z,6.10
2022-09-07T06:39:03.883Z,7.10
2022-09-07T06:42:05.743Z,5.87
2022-09-07T06:45:07.833Z,6.45
2022-09-07T06:48:09.393Z,6.27
2022-09-07T06:51:19.065Z,6.20
2022-09-07T06:57:42.319Z,5.57
2022-09-07T07:00:44.142Z,5.32
2022-09-07T07:03:46.399Z,5.32
2022-09-07T07:06:48.064Z,3.97
2022-09-07T07:09:50.179Z,4.10
2022-09-07T07:12:56.807Z,4.07
2022-09-07T07:16:10.343Z,3.65
2022-09-07T07:22:42.641Z,3.70
2022-09-07T07:25:36.164Z,3.97
2022-09-07T07:31:59.495Z,4.10
2022-09-07T07:35:01.527Z,3.65
2022-09-07T07:48:15.059Z,3.10
2022-09-07T07:51:16.919Z,3.08
2022-09-07T07:54:23.521Z,3.60
2022-09-07T07:57:25.341Z,3.45
2022-09-07T08:00:43.766Z,3.67
2022-09-07T08:03:49.821Z,3.50
2022-09-07T08:06:52.378Z,3.00
2022-09-07T08:09:54.155Z,2.88
2022-09-07T08:12:58.643Z,2.88
2022-09-07T08:16:03.537Z,2.70
2022-09-07T08:19:08.570Z,2.13
2022-09-07T08:22:11.978Z,2.35
2022-09-07T08:25:14.852Z,2.50
2022-09-07T08:28:23.575Z,2.45
2022-09-07T08:31:30.031Z,2.40
2022-09-07T08:34:31.743Z,3.00
2022-09-07T08:37:33.498Z,2.78
2022-09-07T08:40:37.744Z,2.20
2022-09-07T08:44:06.564Z,2.42
2022-09-07T08:47:21.555Z,2.85
2022-09-07T08:50:46.061Z,2.55
2022-09-07T08:53:48.875Z,2.60
2022-09-07T09:00:17.679Z,2.75
2022-09-07T09:03:29.677Z,2.60
2022-09-07T09:06:40.676Z,2.50
2022-09-07T09:09:45.995Z,2.70
2022-09-07T09:13:09.596Z,2.30
2022-09-07T09:16:21.725Z,2.22
2022-09-07T09:19:32.258Z,2.10
2022-09-07T09:22:35.239Z,2.30
2022-09-07T09:25:38.565Z,2.17
2022-09-07T09:28:40.220Z,2.70
2022-09-07T09:31:42.082Z,2.20
2022-09-07T09:35:04.927Z,2.20
2022-09-07T09:38:32.052Z,2.70
2022-09-07T09:41:37.346Z,2.40
2022-09-07T09:44:39.631Z,2.20
2022-09-07T09:47:41.349Z,2.35
2022-09-07T09:54:33.132Z,2.30
2022-09-07T10:01:35.928Z,2.05
2022-09-07T10:04:38.038Z,2.10
2022-09-07T10:07:39.705Z,2.45
2022-09-07T10:11:12.374Z,2.03
2022-09-07T10:14:22.323Z,1.85
2022-09-07T10:17:35.966Z,2.15
2022-09-07T10:20:38.260Z,1.90
2022-09-07T10:26:44.800Z,1.90
2022-09-07T10:29:46.502Z,1.80
2022-09-07T10:33:20.291Z,1.80
2022-09-07T10:36:52.734Z,1.83
2022-09-07T10:40:06.971Z,1.58
2022-09-07T10:43:24.018Z,1.60
2022-09-07T10:46:57.031Z,1.85
2022-09-07T10:50:24.461Z,1.50
2022-09-07T10:53:46.540Z,1.75
2022-09-07T10:57:04.503Z,1.63
2022-09-07T11:00:11.825Z,1.67
2022-09-07T11:03:32.341Z,1.73
2022-09-07T11:06:42.973Z,1.70
2022-09-07T11:10:00.159Z,2.00
2022-09-07T11:13:05.807Z,1.60
2022-09-07T11:16:50.442Z,1.38
2022-09-07T11:19:54.842Z,1.10
2022-09-07T11:23:36.803Z,1.27
2022-09-07T11:26:50.467Z,1.58
2022-09-07T11:30:04.259Z,1.40
2022-09-07T11:33:23.761Z,1.30
2022-09-07T11:36:28.901Z,1.33
2022-09-07T11:39:35.800Z,1.42
2022-09-07T11:42:52.937Z,1.40
2022-09-07T11:46:00.195Z,1.60
2022-09-07T11:49:05.910Z,1.30
2022-09-07T11:52:19.243Z,1.30
2022-09-07T11:55:28.452Z,1.15
2022-09-07T11:58:51.253Z,1.20
2022-09-07T12:02:42.031Z,1.20
2022-09-07T12:06:01.933Z,0.85
2022-09-07T12:09:21.745Z,1.20
2022-09-07T12:13:05.727Z,0.90
2022-09-07T12:16:13.019Z,1.20
2022-09-07T12:19:21.292Z,1.17
2022-09-07T12:22:23.201Z,1.50
2022-09-07T12:25:25.832Z,1.40
2022-09-07T12:28:36.782Z,1.40
2022-09-07T12:35:28.306Z,1.27
2022-09-07T12:38:33.924Z,1.58
2022-09-07T12:41:47.858Z,1.20
2022-09-07T12:45:28.102Z,1.20
2022-09-07T12:48:43.612Z,1.13
2022-09-07T12:52:11.278Z,1.40
2022-09-07T12:55:29.773Z,1.40
2022-09-07T12:58:50.402Z,1.30
2022-09-07T13:02:16.474Z,1.00
2022-09-07T13:05:40.587Z,1.40
2022-09-07T13:08:54.218Z,1.15
2022-09-07T13:11:56.054Z,1.25
2022-09-07T13:14:59.264Z,0.90
2022-09-07T13:18:00.867Z,0.80
2022-09-07T13:21:08.394Z,0.68
2022-09-07T13:27:54.544Z,0.65
2022-09-07T13:31:00.095Z,0.90
2022-09-07T13:34:33.868Z,1.00
2022-09-07T13:37:45.314Z,0.90
2022-09-07T13:40:49.064Z,0.80
2022-09-07T13:43:57.670Z,1.10
2022-09-07T13:47:41.067Z,1.10
2022-09-07T13:51:01.979Z,1.00
2022-09-07T13:54:15.676Z,0.95
2022-09-07T13:57:48.078Z,1.20
2022-09-07T14:01:17.477Z,1.17
2022-09-07T14:04:37.229Z,1.20
2022-09-07T14:07:45.471Z,1.17
2022-09-07T14:10:49.878Z,1.20
2022-09-07T14:14:21.019Z,1.10
2022-09-07T14:17:22.913Z,1.50
2022-09-07T14:20:24.886Z,1.40
2022-09-07T14:23:30.722Z,1.60
2022-09-07T14:26:32.554Z,1.40
2022-09-07T14:29:36.263Z,1.30
2022-09-07T14:32:37.979Z,1.65
2022-09-07T14:35:41.314Z,1.40
2022-09-07T14:42:07.608Z,1.60
2022-09-07T14:45:37.795Z,1.40
2022-09-07T14:48:40.281Z,1.70
2022-09-07T14:51:44.987Z,1.40
2022-09-07T14:54:51.652Z,1.55
2022-09-07T14:58:15.095Z,1.50
2022-09-07T15:04:41.951Z,1.45
2022-09-07T15:07:54.356Z,1.60
2022-09-07T15:14:26.050Z,1.33
2022-09-07T15:17:47.838Z,1.40
2022-09-07T15:20:50.579Z,1.10
2022-09-07T15:27:09.569Z,1.30
2022-09-07T15:30:11.939Z,1.30
2022-09-07T15:33:13.478Z,1.05
2022-09-07T15:36:16.939Z,1.07
2022-09-07T15:39:21.734Z,1.20
2022-09-07T15:45:47.235Z,1.08
2022-09-07T15:48:51.689Z,1.10
2022-09-07T15:52:08.941Z,1.20
2022-09-07T15:55:11.693Z,1.10
2022-09-07T15:58:13.334Z,1.10
2022-09-07T16:04:38.798Z,1.02
2022-09-07T16:11:18.890Z,1.23
2022-09-07T16:14:21.287Z,1.10
2022-09-07T16:17:27.307Z,1.30
2022-09-07T16:20:38.284Z,1.27
2022-09-07T16:23:42.488Z,1.05
2022-09-07T16:26:44.074Z,1.00
2022-09-07T16:29:45.698Z,1.33
2022-09-07T16:32:48.008Z,1.10
2022-09-07T16:35:59.804Z,1.10
2022-09-07T16:39:01.957Z,1.10
2022-09-07T16:42:03.931Z,1.10
2022-09-07T16:48:27.744Z,1.00
2022-09-07T16:51:29.405Z,0.97
2022-09-07T16:54:32.678Z,1.07
2022-09-07T16:58:35.224Z,1.00
2022-09-07T17:00:55.913Z,0.98
2022-09-07T17:03:57.998Z,0.90
2022-09-07T17:06:59.789Z,0.90
2022-09-07T17:10:01.889Z,0.80
2022-09-07T17:13:07.486Z,0.80
2022-09-07T17:16:20.281Z,0.80
2022-09-07T17:19:39.705Z,0.55
2022-09-07T17:22:42.617Z,0.50
2022-09-07T17:25:47.039Z,0.65
2022-09-07T17:28:50.673Z,0.55
2022-09-07T17:35:14.113Z,0.60
2022-09-07T17:41:37.423Z,0.75
2022-09-07T17:44:39.084Z,0.60
2022-09-07T17:47:40.724Z,0.70
2022-09-07T17:50:42.623Z,0.70
2022-09-07T17:53:45.693Z,0.80
2022-09-07T17:56:47.694Z,0.77
2022-09-07T18:03:14.528Z,0.57
2022-09-07T18:06:16.795Z,0.77
2022-09-07T18:09:20.201Z,0.95
2022-09-07T18:12:22.959Z,1.00
2022-09-07T18:15:26.492Z,0.88
2022-09-07T18:18:29.175Z,0.73
2022-09-07T18:24:36.929Z,0.52
2022-09-07T18:27:39.505Z,0.68
2022-09-07T18:30:42.682Z,0.70
2022-09-07T18:33:44.843Z,0.80
2022-09-07T18:36:46.409Z,1.00
2022-09-07T18:39:48.841Z,0.93
2022-09-07T18:42:52.288Z,0.90
2022-09-07T18:46:00.212Z,0.88
2022-09-07T18:49:01.952Z,0.63
2022-09-07T18:55:27.515Z,0.90
2022-09-07T18:58:29.163Z,0.80
2022-09-07T19:01:32.088Z,0.85
2022-09-07T19:07:55.739Z,0.80
2022-09-07T19:11:07.090Z,1.20
2022-09-07T19:14:09.088Z,0.90
2022-09-07T19:17:11.906Z,1.20
2022-09-07T19:23:15.031Z,1.30
2022-09-07T19:26:16.682Z,1.05
2022-09-07T19:29:18.475Z,1.08
2022-09-07T19:32:20.345Z,0.95
2022-09-07T19:35:21.898Z,0.98
2022-09-07T19:38:23.670Z,3.20
2022-09-07T19:41:25.252Z,1.30
2022-09-07T19:44:26.801Z,1.35
2022-09-07T19:47:28.461Z,1.02
2022-09-07T19:50:31.365Z,1.13
2022-09-07T19:56:40.894Z,1.15
2022-09-07T19:59:42.484Z,1.27
2022-09-07T20:02:44.033Z,1.20
2022-09-07T20:05:45.599Z,1.20
2022-09-07T20:08:47.267Z,1.80
2022-09-07T20:11:48.861Z,1.30
2022-09-07T20:14:50.649Z,1.35
2022-09-07T20:17:53.846Z,1.27
2022-09-07T20:20:55.634Z,1.20
2022-09-07T20:23:57.200Z,1.20
2022-09-07T20:26:58.924Z,1.40
2022-09-07T20:30:00.469Z,1.30
2022-09-07T20:33:02.036Z,1.40
2022-09-07T20:36:08.708Z,1.15
2022-09-07T20:39:15.785Z,1.38
2022-09-07T20:42:17.420Z,1.13
2022-09-07T20:45:19.277Z,1.40
2022-09-07T20:48:20.870Z,1.67
2022-09-07T20:51:23.090Z,1.13
2022-09-07T20:54:24.668Z,1.30
2022-09-07T20:57:26.366Z,1.30
2022-09-07T21:00:28.028Z,1.33
2022-09-07T21:03:29.869Z,1.33
2022-09-07T21:06:32.677Z,1.20
2022-09-07T21:09:34.291Z,1.10
2022-09-07T21:12:35.860Z,1.40
2022-09-07T21:15:41.986Z,1.27
2022-09-07T21:18:44.414Z,1.50
2022-09-07T21:21:46.059Z,1.65
2022-09-07T21:24:47.597Z,1.40
2022-09-07T21:27:49.156Z,1.45
2022-09-07T21:31:00.926Z,1.60
2022-09-07T21:34:02.544Z,1.65
2022-09-07T21:37:04.185Z,1.48
2022-09-07T21:40:06.932Z,1.35
2022-09-07T21:43:08.540Z,1.60
2022-09-07T21:46:16.410Z,1.42
2022-09-07T21:49:18.032Z,1.35
2022-09-07T21:52:19.693Z,1.45
2022-09-07T21:55:21.237Z,1.48
2022-09-07T21:58:23.006Z,1.75
2022-09-07T22:01:27.256Z,1.58
2022-09-07T22:04:28.943Z,1.45
2022-09-07T22:07:31.466Z,1.60
2022-09-07T22:10:33.920Z,1.67
2022-09-07T22:13:36.057Z,1.42
2022-09-07T22:16:37.842Z,1.30
2022-09-07T22:19:39.566Z,1.55
2022-09-07T22:22:41.148Z,1.95
2022-09-07T22:25:51.813Z,1.40
2022-09-07T22:28:54.022Z,1.60
2022-09-07T22:31:55.794Z,1.27
2022-09-07T22:34:57.428Z,1.63
2022-09-07T22:37:59.027Z,1.70
2022-09-07T22:41:11.877Z,1.50
2022-09-07T22:44:15.825Z,1.60
2022-09-07T22:47:17.427Z,1.80
2022-09-07T22:50:20.352Z,1.90
2022-09-07T22:53:22.527Z,2.03
2022-09-07T22:56:29.604Z,2.10
2022-09-07T22:59:31.434Z,1.88
2022-09-07T23:02:33.012Z,1.75
2022-09-07T23:05:36.774Z,2.00
2022-09-07T23:08:38.357Z,1.80
2022-09-07T23:11:40.050Z,1.65
2022-09-07T23:14:41.624Z,1.80
2022-09-07T23:17:43.218Z,1.33
2022-09-07T23:20:45.224Z,1.80
2022-09-07T23:23:52.203Z,2.00
2022-09-07T23:26:53.966Z,2.10
2022-09-07T23:29:55.544Z,2.00
2022-09-07T23:32:57.343Z,1.90
2022-09-07T23:36:01.771Z,1.83
2022-09-07T23:39:03.922Z,1.90
2022-09-07T23:42:05.804Z,1.93
2022-09-07T23:45:08.712Z,2.10
2022-09-07T23:48:10.323Z,1.90
2022-09-07T23:51:12.982Z,1.77
2022-09-07T23:54:14.789Z,2.00
2022-09-07T23:57:16.548Z,2.20
